CFM5 weather

CLOSED Hamburg Airport
Apache, Alberta, Canada

Public forecast

Using degrees Celsius for public forecast. Weather courtesy of forecast.io.

Closest aviation weather report (METAR) to Hamburg Airport

Closest report is Fort St John Airport, 74.3 nm (137.7 km) SSW. Retrieved 2019/10/18 15:00 UTC (21 minutes ago):

CYXJ 181500Z 00000KT 30SM FEW050 SCT110 BKN210 01/M01 A2929 RMK SC2AC2CI1 SLP942

Closest aviation forecast (TAF) to Hamburg Airport

Closest forecast is Fort St John Airport, 74.3 nm (137.7 km) SSW. Retrieved 2019/10/18 13:39 UTC (2 hours ago):

TAF CYXJ 181238Z 1813/1901 16005KT P6SM BKN080 TEMPO 1813/1901 BKN040 OVC080 BECMG 1817/1819 22012KT RMK NXT FCST BY 181900Z